sensor_id;sensor_type;location;lat;lon;timestamp;temperature;humidity
20372;DHT22;63562;30.520;-97.766;2022-10-29T00:01:16;16.80;99.90
20372;DHT22;63562;30.520;-97.766;2022-10-29T00:03:47;16.60;99.90
20372;DHT22;63562;30.520;-97.766;2022-10-29T00:06:19;16.70;99.90
20372;DHT22;63562;30.520;-97.766;2022-10-29T00:08:49;16.60;99.90
20372;DHT22;63562;30.520;-97.766;2022-10-29T00:11:19;16.50;99.90
20372;DHT22;63562;30.520;-97.766;2022-10-29T00:13:57;16.50;99.90
20372;DHT22;63562;30.520;-97.766;2022-10-29T00:16:34;16.40;99.90
20372;DHT22;63562;30.520;-97.766;2022-10-29T00:19:05;16.40;99.90
20372;DHT22;63562;30.520;-97.766;2022-10-29T00:21:36;16.30;99.90
20372;DHT22;63562;30.520;-97.766;2022-10-29T00:24:09;16.40;99.90
20372;DHT22;63562;30.520;-97.766;2022-10-29T00:26:40;16.30;99.90
20372;DHT22;63562;30.520;-97.766;2022-10-29T00:29:10;16.40;99.90
20372;DHT22;63562;30.520;-97.766;2022-10-29T00:31:39;16.40;99.90
20372;DHT22;63562;30.520;-97.766;2022-10-29T00:34:12;16.40;99.90
20372;DHT22;63562;30.520;-97.766;2022-10-29T00:36:43;16.30;99.90
20372;DHT22;63562;30.520;-97.766;2022-10-29T00:39:16;16.20;99.90
20372;DHT22;63562;30.520;-97.766;2022-10-29T00:41:47;16.30;99.90
20372;DHT22;63562;30.520;-97.766;2022-10-29T00:47:45;16.10;99.90
20372;DHT22;63562;30.520;-97.766;2022-10-29T00:50:11;16.00;99.90
20372;DHT22;63562;30.520;-97.766;2022-10-29T00:52:45;16.10;99.90
20372;DHT22;63562;30.520;-97.766;2022-10-29T00:55:17;16.10;99.90
20372;DHT22;63562;30.520;-97.766;2022-10-29T00:57:51;16.10;99.90
20372;DHT22;63562;30.520;-97.766;2022-10-29T01:00:24;15.90;99.90
20372;DHT22;63562;30.520;-97.766;2022-10-29T01:02:54;16.00;99.90
20372;DHT22;63562;30.520;-97.766;2022-10-29T01:05:39;16.10;99.90
20372;DHT22;63562;30.520;-97.766;2022-10-29T01:08:12;15.80;99.90
20372;DHT22;63562;30.520;-97.766;2022-10-29T01:34:21;15.80;99.90
20372;DHT22;63562;30.520;-97.766;2022-10-29T01:37:00;15.80;99.90
20372;DHT22;63562;30.520;-97.766;2022-10-29T01:39:36;15.60;99.90
20372;DHT22;63562;30.520;-97.766;2022-10-29T01:47:37;15.60;99.90
20372;DHT22;63562;30.520;-97.766;2022-10-29T01:50:12;15.70;99.90
20372;DHT22;63562;30.520;-97.766;2022-10-29T01:52:47;15.70;99.90
20372;DHT22;63562;30.520;-97.766;2022-10-29T01:55:29;15.80;99.90
20372;DHT22;63562;30.520;-97.766;2022-10-29T01:58:01;15.80;99.90
20372;DHT22;63562;30.520;-97.766;2022-10-29T02:01:11;15.60;99.90
20372;DHT22;63562;30.520;-97.766;2022-10-29T02:09:47;15.60;99.90
20372;DHT22;63562;30.520;-97.766;2022-10-29T02:13:02;15.40;99.90
20372;DHT22;63562;30.520;-97.766;2022-10-29T02:15:46;15.60;99.90
20372;DHT22;63562;30.520;-97.766;2022-10-29T02:18:18;15.50;99.90
20372;DHT22;63562;30.520;-97.766;2022-10-29T02:20:50;15.50;99.90
20372;DHT22;63562;30.520;-97.766;2022-10-29T02:23:25;15.50;99.90
20372;DHT22;63562;30.520;-97.766;2022-10-29T02:25:58;15.60;99.90
20372;DHT22;63562;30.520;-97.766;2022-10-29T02:28:30;15.60;99.90
20372;DHT22;63562;30.520;-97.766;2022-10-29T02:31:01;15.60;99.90
20372;DHT22;63562;30.520;-97.766;2022-10-29T02:33:33;15.70;99.90
20372;DHT22;63562;30.520;-97.766;2022-10-29T02:36:05;15.70;99.90
20372;DHT22;63562;30.520;-97.766;2022-10-29T02:38:36;15.60;99.90
20372;DHT22;63562;30.520;-97.766;2022-10-29T02:41:11;15.50;99.90
20372;DHT22;63562;30.520;-97.766;2022-10-29T02:43:42;15.40;99.90
20372;DHT22;63562;30.520;-97.766;2022-10-29T02:46:16;15.50;99.90
20372;DHT22;63562;30.520;-97.766;2022-10-29T02:48:49;15.60;99.90
20372;DHT22;63562;30.520;-97.766;2022-10-29T02:51:20;15.50;99.90
20372;DHT22;63562;30.520;-97.766;2022-10-29T02:53:51;15.50;99.90
20372;DHT22;63562;30.520;-97.766;2022-10-29T02:56:23;15.70;99.90
20372;DHT22;63562;30.520;-97.766;2022-10-29T02:58:58;15.60;99.90
20372;DHT22;63562;30.520;-97.766;2022-10-29T03:01:31;15.50;99.90
20372;DHT22;63562;30.520;-97.766;2022-10-29T03:04:01;15.40;99.90
20372;DHT22;63562;30.520;-97.766;2022-10-29T03:06:31;15.40;99.90
20372;DHT22;63562;30.520;-97.766;2022-10-29T03:09:03;15.40;99.90
20372;DHT22;63562;30.520;-97.766;2022-10-29T03:11:38;15.50;99.90
20372;DHT22;63562;30.520;-97.766;2022-10-29T03:14:10;15.40;99.90
20372;DHT22;63562;30.520;-97.766;2022-10-29T03:16:39;15.60;99.90
20372;DHT22;63562;30.520;-97.766;2022-10-29T03:19:09;15.50;99.90
20372;DHT22;63562;30.520;-97.766;2022-10-29T03:21:39;15.60;99.90
20372;DHT22;63562;30.520;-97.766;2022-10-29T03:24:11;15.50;99.90
20372;DHT22;63562;30.520;-97.766;2022-10-29T03:26:43;15.50;99.90
20372;DHT22;63562;30.520;-97.766;2022-10-29T03:29:17;15.40;99.90
20372;DHT22;63562;30.520;-97.766;2022-10-29T03:31:49;15.40;99.90
20372;DHT22;63562;30.520;-97.766;2022-10-29T03:34:23;15.50;99.90
20372;DHT22;63562;30.520;-97.766;2022-10-29T03:36:59;15.50;99.90
20372;DHT22;63562;30.520;-97.766;2022-10-29T03:39:31;15.60;99.90
20372;DHT22;63562;30.520;-97.766;2022-10-29T03:42:02;15.50;99.90
20372;DHT22;63562;30.520;-97.766;2022-10-29T03:44:34;15.60;99.90
20372;DHT22;63562;30.520;-97.766;2022-10-29T03:47:07;15.60;99.90
20372;DHT22;63562;30.520;-97.766;2022-10-29T03:49:37;15.60;99.90
20372;DHT22;63562;30.520;-97.766;2022-10-29T03:52:12;15.60;99.90
20372;DHT22;63562;30.520;-97.766;2022-10-29T03:54:42;15.50;99.90
20372;DHT22;63562;30.520;-97.766;2022-10-29T03:57:12;15.50;99.90
20372;DHT22;63562;30.520;-97.766;2022-10-29T03:59:43;15.40;99.90
20372;DHT22;63562;30.520;-97.766;2022-10-29T04:02:19;15.40;99.90
20372;DHT22;63562;30.520;-97.766;2022-10-29T04:04:48;15.30;99.90
20372;DHT22;63562;30.520;-97.766;2022-10-29T04:07:24;15.20;99.90
20372;DHT22;63562;30.520;-97.766;2022-10-29T04:10:01;15.30;99.90
20372;DHT22;63562;30.520;-97.766;2022-10-29T04:12:31;15.20;99.90
20372;DHT22;63562;30.520;-97.766;2022-10-29T04:15:06;15.30;99.90
20372;DHT22;63562;30.520;-97.766;2022-10-29T04:17:38;15.30;99.90
20372;DHT22;63562;30.520;-97.766;2022-10-29T04:20:11;15.20;99.90
20372;DHT22;63562;30.520;-97.766;2022-10-29T04:23:01;15.20;99.90
20372;DHT22;63562;30.520;-97.766;2022-10-29T04:25:56;15.30;99.90
20372;DHT22;63562;30.520;-97.766;2022-10-29T04:28:50;15.20;99.90
20372;DHT22;63562;30.520;-97.766;2022-10-29T04:31:22;15.10;99.90
20372;DHT22;63562;30.520;-97.766;2022-10-29T04:33:53;15.10;99.90
20372;DHT22;63562;30.520;-97.766;2022-10-29T04:36:24;15.30;99.90
20372;DHT22;63562;30.520;-97.766;2022-10-29T04:38:55;15.30;99.90
20372;DHT22;63562;30.520;-97.766;2022-10-29T04:41:28;15.20;99.90
20372;DHT22;63562;30.520;-97.766;2022-10-29T04:44:00;15.30;99.90
20372;DHT22;63562;30.520;-97.766;2022-10-29T04:46:31;15.30;99.90
20372;DHT22;63562;30.520;-97.766;2022-10-29T04:49:05;15.30;99.90
20372;DHT22;63562;30.520;-97.766;2022-10-29T04:51:35;15.40;99.90
20372;DHT22;63562;30.520;-97.766;2022-10-29T04:54:04;15.30;99.90
20372;DHT22;63562;30.520;-97.766;2022-10-29T04:56:36;15.40;99.90
20372;DHT22;63562;30.520;-97.766;2022-10-29T04:59:09;15.20;99.90
20372;DHT22;63562;30.520;-97.766;2022-10-29T05:01:42;15.20;99.90
20372;DHT22;63562;30.520;-97.766;2022-10-29T05:04:12;15.10;99.90
20372;DHT22;63562;30.520;-97.766;2022-10-29T05:06:44;15.00;99.90
20372;DHT22;63562;30.520;-97.766;2022-10-29T05:09:16;15.30;99.90
20372;DHT22;63562;30.520;-97.766;2022-10-29T05:11:47;15.30;99.90
20372;DHT22;63562;30.520;-97.766;2022-10-29T05:14:19;15.30;99.90
20372;DHT22;63562;30.520;-97.766;2022-10-29T05:16:51;15.10;99.90
20372;DHT22;63562;30.520;-97.766;2022-10-29T05:19:21;15.00;99.90
20372;DHT22;63562;30.520;-97.766;2022-10-29T05:21:52;14.90;99.90
20372;DHT22;63562;30.520;-97.766;2022-10-29T05:24:24;15.00;99.90
20372;DHT22;63562;30.520;-97.766;2022-10-29T05:26:56;15.20;99.90
20372;DHT22;63562;30.520;-97.766;2022-10-29T05:29:30;15.20;99.90
20372;DHT22;63562;30.520;-97.766;2022-10-29T05:32:03;15.20;99.90
20372;DHT22;63562;30.520;-97.766;2022-10-29T05:34:34;15.20;99.90
20372;DHT22;63562;30.520;-97.766;2022-10-29T05:37:06;15.20;99.90
20372;DHT22;63562;30.520;-97.766;2022-10-29T05:39:39;15.20;99.90
20372;DHT22;63562;30.520;-97.766;2022-10-29T05:42:10;15.20;99.90
20372;DHT22;63562;30.520;-97.766;2022-10-29T05:44:40;15.20;99.90
20372;DHT22;63562;30.520;-97.766;2022-10-29T05:47:10;15.20;99.90
20372;DHT22;63562;30.520;-97.766;2022-10-29T05:49:41;15.20;99.90
20372;DHT22;63562;30.520;-97.766;2022-10-29T05:52:11;15.20;99.90
20372;DHT22;63562;30.520;-97.766;2022-10-29T05:54:41;15.20;99.90
20372;DHT22;63562;30.520;-97.766;2022-10-29T05:57:12;15.20;99.90
20372;DHT22;63562;30.520;-97.766;2022-10-29T05:59:45;15.20;99.90
20372;DHT22;63562;30.520;-97.766;2022-10-29T06:02:16;15.30;99.90
20372;DHT22;63562;30.520;-97.766;2022-10-29T06:04:46;15.20;99.90
20372;DHT22;63562;30.520;-97.766;2022-10-29T06:07:20;15.10;99.90
20372;DHT22;63562;30.520;-97.766;2022-10-29T06:09:53;15.10;99.90
20372;DHT22;63562;30.520;-97.766;2022-10-29T06:12:24;15.20;99.90
20372;DHT22;63562;30.520;-97.766;2022-10-29T06:15:01;15.20;99.90
20372;DHT22;63562;30.520;-97.766;2022-10-29T06:17:40;15.10;99.90
20372;DHT22;63562;30.520;-97.766;2022-10-29T06:20:14;14.90;99.90
20372;DHT22;63562;30.520;-97.766;2022-10-29T06:22:51;14.90;99.90
20372;DHT22;63562;30.520;-97.766;2022-10-29T06:25:26;15.20;99.90
20372;DHT22;63562;30.520;-97.766;2022-10-29T06:28:08;15.10;99.90
20372;DHT22;63562;30.520;-97.766;2022-10-29T06:30:44;15.10;99.90
20372;DHT22;63562;30.520;-97.766;2022-10-29T06:33:17;15.20;99.90
20372;DHT22;63562;30.520;-97.766;2022-10-29T06:35:48;15.00;99.90
20372;DHT22;63562;30.520;-97.766;2022-10-29T06:38:18;15.00;99.90
20372;DHT22;63562;30.520;-97.766;2022-10-29T06:40:51;15.00;99.90
20372;DHT22;63562;30.520;-97.766;2022-10-29T06:43:40;15.00;99.90
20372;DHT22;63562;30.520;-97.766;2022-10-29T06:46:12;15.00;99.90
20372;DHT22;63562;30.520;-97.766;2022-10-29T06:48:42;15.10;99.90
20372;DHT22;63562;30.520;-97.766;2022-10-29T06:51:16;15.20;99.90
20372;DHT22;63562;30.520;-97.766;2022-10-29T06:53:48;15.00;99.90
20372;DHT22;63562;30.520;-97.766;2022-10-29T06:56:20;15.00;99.90
20372;DHT22;63562;30.520;-97.766;2022-10-29T06:58:52;14.90;99.90
20372;DHT22;63562;30.520;-97.766;2022-10-29T07:01:22;14.80;99.90
20372;DHT22;63562;30.520;-97.766;2022-10-29T07:03:59;14.90;99.90
20372;DHT22;63562;30.520;-97.766;2022-10-29T07:06:32;14.90;99.90
20372;DHT22;63562;30.520;-97.766;2022-10-29T07:09:05;14.90;99.90
20372;DHT22;63562;30.520;-97.766;2022-10-29T07:11:36;14.90;99.90
20372;DHT22;63562;30.520;-97.766;2022-10-29T07:14:06;14.90;99.90
20372;DHT22;63562;30.520;-97.766;2022-10-29T07:16:45;14.80;99.90
20372;DHT22;63562;30.520;-97.766;2022-10-29T07:19:15;14.70;99.90
20372;DHT22;63562;30.520;-97.766;2022-10-29T07:21:48;14.60;99.90
20372;DHT22;63562;30.520;-97.766;2022-10-29T07:24:19;14.60;99.90
20372;DHT22;63562;30.520;-97.766;2022-10-29T07:26:54;14.70;99.90
20372;DHT22;63562;30.520;-97.766;2022-10-29T07:29:25;14.80;99.90
20372;DHT22;63562;30.520;-97.766;2022-10-29T07:31:56;14.70;99.90
20372;DHT22;63562;30.520;-97.766;2022-10-29T07:34:26;14.80;99.90
20372;DHT22;63562;30.520;-97.766;2022-10-29T07:36:57;14.90;99.90
20372;DHT22;63562;30.520;-97.766;2022-10-29T07:39:28;14.90;99.90
20372;DHT22;63562;30.520;-97.766;2022-10-29T07:41:58;14.90;99.90
20372;DHT22;63562;30.520;-97.766;2022-10-29T07:44:32;14.90;99.90
20372;DHT22;63562;30.520;-97.766;2022-10-29T07:47:03;14.80;99.90
20372;DHT22;63562;30.520;-97.766;2022-10-29T07:49:33;14.90;99.90
20372;DHT22;63562;30.520;-97.766;2022-10-29T07:52:05;14.90;99.90
20372;DHT22;63562;30.520;-97.766;2022-10-29T07:54:37;14.80;99.90
20372;DHT22;63562;30.520;-97.766;2022-10-29T07:57:09;14.80;99.90
20372;DHT22;63562;30.520;-97.766;2022-10-29T07:59:42;14.90;99.90
20372;DHT22;63562;30.520;-97.766;2022-10-29T08:02:11;14.90;99.90
20372;DHT22;63562;30.520;-97.766;2022-10-29T08:04:43;14.70;99.90
20372;DHT22;63562;30.520;-97.766;2022-10-29T08:07:14;14.70;99.90
20372;DHT22;63562;30.520;-97.766;2022-10-29T08:09:46;14.60;99.90
20372;DHT22;63562;30.520;-97.766;2022-10-29T08:12:17;14.80;99.90
20372;DHT22;63562;30.520;-97.766;2022-10-29T08:14:50;14.80;99.90
20372;DHT22;63562;30.520;-97.766;2022-10-29T08:17:19;14.80;99.90
20372;DHT22;63562;30.520;-97.766;2022-10-29T08:19:49;14.70;99.90
20372;DHT22;63562;30.520;-97.766;2022-10-29T08:22:24;14.80;99.90
20372;DHT22;63562;30.520;-97.766;2022-10-29T08:24:55;14.70;99.90
20372;DHT22;63562;30.520;-97.766;2022-10-29T08:27:26;14.60;99.90
20372;DHT22;63562;30.520;-97.766;2022-10-29T08:29:57;14.70;99.90
20372;DHT22;63562;30.520;-97.766;2022-10-29T08:32:27;14.70;99.90
20372;DHT22;63562;30.520;-97.766;2022-10-29T08:34:59;14.70;99.90
20372;DHT22;63562;30.520;-97.766;2022-10-29T08:37:31;14.70;99.90
20372;DHT22;63562;30.520;-97.766;2022-10-29T08:40:01;14.60;99.90
20372;DHT22;63562;30.520;-97.766;2022-10-29T08:43:17;14.70;99.90
20372;DHT22;63562;30.520;-97.766;2022-10-29T08:45:54;14.60;99.90
20372;DHT22;63562;30.520;-97.766;2022-10-29T08:48:53;14.60;99.90
20372;DHT22;63562;30.520;-97.766;2022-10-29T08:51:35;14.80;99.90
20372;DHT22;63562;30.520;-97.766;2022-10-29T08:54:12;14.80;99.90
20372;DHT22;63562;30.520;-97.766;2022-10-29T08:57:05;14.80;99.90
20372;DHT22;63562;30.520;-97.766;2022-10-29T08:59:57;14.60;99.90
20372;DHT22;63562;30.520;-97.766;2022-10-29T09:02:29;14.70;99.90
20372;DHT22;63562;30.520;-97.766;2022-10-29T09:04:58;14.80;99.90
20372;DHT22;63562;30.520;-97.766;2022-10-29T09:07:45;14.70;99.90
20372;DHT22;63562;30.520;-97.766;2022-10-29T09:10:43;14.80;99.90
20372;DHT22;63562;30.520;-97.766;2022-10-29T09:19:04;14.70;99.90
20372;DHT22;63562;30.520;-97.766;2022-10-29T09:22:10;14.70;99.90
20372;DHT22;63562;30.520;-97.766;2022-10-29T09:25:10;14.60;99.90
20372;DHT22;63562;30.520;-97.766;2022-10-29T09:27:58;14.40;99.90
20372;DHT22;63562;30.520;-97.766;2022-10-29T09:30:30;14.60;99.90
20372;DHT22;63562;30.520;-97.766;2022-10-29T09:33:17;14.50;99.90
20372;DHT22;63562;30.520;-97.766;2022-10-29T09:35:53;14.70;99.90
20372;DHT22;63562;30.520;-97.766;2022-10-29T09:38:24;14.50;99.90
20372;DHT22;63562;30.520;-97.766;2022-10-29T09:40:57;14.50;99.90
20372;DHT22;63562;30.520;-97.766;2022-10-29T09:54:58;14.50;99.90
20372;DHT22;63562;30.520;-97.766;2022-10-29T09:57:31;14.50;99.90
20372;DHT22;63562;30.520;-97.766;2022-10-29T10:00:20;14.50;99.90
20372;DHT22;63562;30.520;-97.766;2022-10-29T10:03:03;14.40;99.90
20372;DHT22;63562;30.520;-97.766;2022-10-29T10:08:29;14.40;99.90
20372;DHT22;63562;30.520;-97.766;2022-10-29T10:11:06;14.50;99.90
20372;DHT22;63562;30.520;-97.766;2022-10-29T10:13:48;14.50;99.90
20372;DHT22;63562;30.520;-97.766;2022-10-29T10:16:24;14.30;99.90
20372;DHT22;63562;30.520;-97.766;2022-10-29T10:18:58;14.30;99.90
20372;DHT22;63562;30.520;-97.766;2022-10-29T10:21:35;14.40;99.90
20372;DHT22;63562;30.520;-97.766;2022-10-29T10:24:36;14.30;99.90
20372;DHT22;63562;30.520;-97.766;2022-10-29T10:30:06;14.30;99.90
20372;DHT22;63562;30.520;-97.766;2022-10-29T10:32:39;14.20;99.90
20372;DHT22;63562;30.520;-97.766;2022-10-29T10:35:41;14.20;99.90
20372;DHT22;63562;30.520;-97.766;2022-10-29T10:38:12;14.20;99.90
20372;DHT22;63562;30.520;-97.766;2022-10-29T10:40:56;14.30;99.90
20372;DHT22;63562;30.520;-97.766;2022-10-29T10:43:29;14.20;99.90
20372;DHT22;63562;30.520;-97.766;2022-10-29T10:46:04;14.30;99.90
20372;DHT22;63562;30.520;-97.766;2022-10-29T10:48:39;14.20;99.90
20372;DHT22;63562;30.520;-97.766;2022-10-29T10:51:18;14.20;99.90
20372;DHT22;63562;30.520;-97.766;2022-10-29T10:53:50;14.30;99.90
20372;DHT22;63562;30.520;-97.766;2022-10-29T10:56:21;14.30;99.90
20372;DHT22;63562;30.520;-97.766;2022-10-29T10:59:02;14.20;99.90
20372;DHT22;63562;30.520;-97.766;2022-10-29T11:01:45;14.20;99.90
20372;DHT22;63562;30.520;-97.766;2022-10-29T11:04:27;14.30;99.90
20372;DHT22;63562;30.520;-97.766;2022-10-29T11:07:04;14.30;99.90
20372;DHT22;63562;30.520;-97.766;2022-10-29T11:09:45;14.30;99.90
20372;DHT22;63562;30.520;-97.766;2022-10-29T11:12:41;14.30;99.90
20372;DHT22;63562;30.520;-97.766;2022-10-29T11:19:15;14.40;99.90
20372;DHT22;63562;30.520;-97.766;2022-10-29T11:24:40;14.40;99.90
20372;DHT22;63562;30.520;-97.766;2022-10-29T11:30:15;14.50;99.90
20372;DHT22;63562;30.520;-97.766;2022-10-29T11:33:08;14.50;99.90
20372;DHT22;63562;30.520;-97.766;2022-10-29T11:35:56;14.40;99.90
20372;DHT22;63562;30.520;-97.766;2022-10-29T11:44:37;14.50;99.90
20372;DHT22;63562;30.520;-97.766;2022-10-29T11:55:47;14.40;99.90
20372;DHT22;63562;30.520;-97.766;2022-10-29T11:58:56;14.40;99.90
20372;DHT22;63562;30.520;-97.766;2022-10-29T12:04:40;14.60;99.90
20372;DHT22;63562;30.520;-97.766;2022-10-29T12:07:36;14.50;99.90
20372;DHT22;63562;30.520;-97.766;2022-10-29T12:35:28;14.40;99.90
20372;DHT22;63562;30.520;-97.766;2022-10-29T12:40:49;14.40;99.90
20372;DHT22;63562;30.520;-97.766;2022-10-29T12:43:28;14.40;99.90
20372;DHT22;63562;30.520;-97.766;2022-10-29T12:49:12;14.40;99.90
20372;DHT22;63562;30.520;-97.766;2022-10-29T12:51:55;14.50;99.90
20372;DHT22;63562;30.520;-97.766;2022-10-29T12:59:46;14.40;99.90
20372;DHT22;63562;30.520;-97.766;2022-10-29T13:02:40;14.50;99.90
20372;DHT22;63562;30.520;-97.766;2022-10-29T13:05:17;14.40;99.90
20372;DHT22;63562;30.520;-97.766;2022-10-29T13:15:57;14.40;99.90
20372;DHT22;63562;30.520;-97.766;2022-10-29T13:19:00;14.40;99.90
20372;DHT22;63562;30.520;-97.766;2022-10-29T13:22:02;14.40;99.90
20372;DHT22;63562;30.520;-97.766;2022-10-29T13:24:36;14.50;99.90
20372;DHT22;63562;30.520;-97.766;2022-10-29T13:29:50;14.60;99.90
20372;DHT22;63562;30.520;-97.766;2022-10-29T13:32:40;14.60;99.90
20372;DHT22;63562;30.520;-97.766;2022-10-29T13:37:54;14.30;99.90
20372;DHT22;63562;30.520;-97.766;2022-10-29T13:45:44;14.50;99.90
20372;DHT22;63562;30.520;-97.766;2022-10-29T13:48:50;14.50;99.90
20372;DHT22;63562;30.520;-97.766;2022-10-29T13:51:39;14.40;99.90
20372;DHT22;63562;30.520;-97.766;2022-10-29T13:54:28;14.40;99.90
20372;DHT22;63562;30.520;-97.766;2022-10-29T14:08:06;14.30;99.90
20372;DHT22;63562;30.520;-97.766;2022-10-29T14:16:10;14.60;99.90
20372;DHT22;63562;30.520;-97.766;2022-10-29T14:18:49;14.70;99.90
20372;DHT22;63562;30.520;-97.766;2022-10-29T14:21:28;14.60;99.90
20372;DHT22;63562;30.520;-97.766;2022-10-29T14:24:05;14.60;99.90
20372;DHT22;63562;30.520;-97.766;2022-10-29T14:26:38;14.60;99.90
20372;DHT22;63562;30.520;-97.766;2022-10-29T14:31:45;14.50;99.90
20372;DHT22;63562;30.520;-97.766;2022-10-29T14:34:26;14.70;99.90
20372;DHT22;63562;30.520;-97.766;2022-10-29T14:37:06;14.70;99.90
20372;DHT22;63562;30.520;-97.766;2022-10-29T14:39:51;14.70;99.90
20372;DHT22;63562;30.520;-97.766;2022-10-29T14:42:29;14.70;99.90
20372;DHT22;63562;30.520;-97.766;2022-10-29T14:45:29;14.80;99.90
20372;DHT22;63562;30.520;-97.766;2022-10-29T14:48:09;14.80;99.90
20372;DHT22;63562;30.520;-97.766;2022-10-29T14:50:49;14.80;99.90
20372;DHT22;63562;30.520;-97.766;2022-10-29T14:53:29;14.90;99.90
20372;DHT22;63562;30.520;-97.766;2022-10-29T14:56:07;14.80;99.90
20372;DHT22;63562;30.520;-97.766;2022-10-29T14:58:44;14.90;99.90
20372;DHT22;63562;30.520;-97.766;2022-10-29T15:01:16;14.90;99.90
20372;DHT22;63562;30.520;-97.766;2022-10-29T15:03:58;14.90;99.90
20372;DHT22;63562;30.520;-97.766;2022-10-29T15:06:30;15.00;99.90
20372;DHT22;63562;30.520;-97.766;2022-10-29T15:09:02;15.00;99.90
20372;DHT22;63562;30.520;-97.766;2022-10-29T15:11:52;15.00;99.90
20372;DHT22;63562;30.520;-97.766;2022-10-29T15:14:36;15.20;99.90
20372;DHT22;63562;30.520;-97.766;2022-10-29T15:17:24;15.30;99.90
20372;DHT22;63562;30.520;-97.766;2022-10-29T15:20:04;15.30;99.90
20372;DHT22;63562;30.520;-97.766;2022-10-29T15:22:50;15.20;99.90
20372;DHT22;63562;30.520;-97.766;2022-10-29T15:25:37;15.30;99.90
20372;DHT22;63562;30.520;-97.766;2022-10-29T15:28:09;15.50;99.90
20372;DHT22;63562;30.520;-97.766;2022-10-29T15:30:41;15.50;99.90
20372;DHT22;63562;30.520;-97.766;2022-10-29T15:33:16;15.50;99.90
20372;DHT22;63562;30.520;-97.766;2022-10-29T15:35:59;15.50;99.90
20372;DHT22;63562;30.520;-97.766;2022-10-29T15:44:27;15.60;99.90
20372;DHT22;63562;30.520;-97.766;2022-10-29T15:47:13;15.60;99.90
20372;DHT22;63562;30.520;-97.766;2022-10-29T15:49:47;15.70;99.90
20372;DHT22;63562;30.520;-97.766;2022-10-29T15:52:18;15.80;99.90
20372;DHT22;63562;30.520;-97.766;2022-10-29T15:54:52;15.90;99.90
20372;DHT22;63562;30.520;-97.766;2022-10-29T15:57:25;15.90;99.90
20372;DHT22;63562;30.520;-97.766;2022-10-29T16:00:06;15.90;99.90
20372;DHT22;63562;30.520;-97.766;2022-10-29T16:02:41;15.90;99.90
20372;DHT22;63562;30.520;-97.766;2022-10-29T16:05:13;16.00;99.90
20372;DHT22;63562;30.520;-97.766;2022-10-29T16:07:46;16.10;99.90
20372;DHT22;63562;30.520;-97.766;2022-10-29T16:10:20;16.00;99.90
20372;DHT22;63562;30.520;-97.766;2022-10-29T16:12:49;16.10;99.90
20372;DHT22;63562;30.520;-97.766;2022-10-29T16:15:23;16.10;99.90
20372;DHT22;63562;30.520;-97.766;2022-10-29T16:18:00;16.10;99.90
20372;DHT22;63562;30.520;-97.766;2022-10-29T16:20:31;16.20;99.90
20372;DHT22;63562;30.520;-97.766;2022-10-29T16:23:01;16.30;99.90
20372;DHT22;63562;30.520;-97.766;2022-10-29T16:25:32;16.30;99.90
20372;DHT22;63562;30.520;-97.766;2022-10-29T16:28:03;16.30;99.90
20372;DHT22;63562;30.520;-97.766;2022-10-29T16:30:33;16.40;99.90
20372;DHT22;63562;30.520;-97.766;2022-10-29T16:33:09;16.40;99.90
20372;DHT22;63562;30.520;-97.766;2022-10-29T16:35:45;16.40;99.90
20372;DHT22;63562;30.520;-97.766;2022-10-29T16:38:15;16.40;99.90
20372;DHT22;63562;30.520;-97.766;2022-10-29T16:40:47;16.50;99.90
20372;DHT22;63562;30.520;-97.766;2022-10-29T16:43:19;16.60;99.90
20372;DHT22;63562;30.520;-97.766;2022-10-29T16:45:57;16.60;99.90
20372;DHT22;63562;30.520;-97.766;2022-10-29T16:48:35;16.70;99.90
20372;DHT22;63562;30.520;-97.766;2022-10-29T16:51:10;16.70;99.90
20372;DHT22;63562;30.520;-97.766;2022-10-29T16:53:42;16.80;99.90
20372;DHT22;63562;30.520;-97.766;2022-10-29T16:56:16;16.80;99.90
20372;DHT22;63562;30.520;-97.766;2022-10-29T16:58:46;16.90;99.90
20372;DHT22;63562;30.520;-97.766;2022-10-29T17:01:19;17.00;99.90
20372;DHT22;63562;30.520;-97.766;2022-10-29T17:03:51;17.00;99.90
20372;DHT22;63562;30.520;-97.766;2022-10-29T17:06:21;17.00;99.90
20372;DHT22;63562;30.520;-97.766;2022-10-29T17:08:53;17.00;99.90
20372;DHT22;63562;30.520;-97.766;2022-10-29T17:11:30;17.10;99.90
20372;DHT22;63562;30.520;-97.766;2022-10-29T17:14:10;17.30;99.90
20372;DHT22;63562;30.520;-97.766;2022-10-29T17:16:40;17.40;99.90
20372;DHT22;63562;30.520;-97.766;2022-10-29T17:19:10;17.40;99.90
20372;DHT22;63562;30.520;-97.766;2022-10-29T17:21:42;17.30;99.90
20372;DHT22;63562;30.520;-97.766;2022-10-29T17:24:16;17.40;99.90
20372;DHT22;63562;30.520;-97.766;2022-10-29T17:26:49;17.50;99.90
20372;DHT22;63562;30.520;-97.766;2022-10-29T17:29:21;17.60;99.90
20372;DHT22;63562;30.520;-97.766;2022-10-29T17:31:55;17.50;99.90
20372;DHT22;63562;30.520;-97.766;2022-10-29T17:34:28;17.40;99.90
20372;DHT22;63562;30.520;-97.766;2022-10-29T17:37:01;17.50;99.90
20372;DHT22;63562;30.520;-97.766;2022-10-29T17:39:44;17.60;99.90
20372;DHT22;63562;30.520;-97.766;2022-10-29T17:42:14;17.60;99.90
20372;DHT22;63562;30.520;-97.766;2022-10-29T17:44:50;17.70;99.90
20372;DHT22;63562;30.520;-97.766;2022-10-29T17:47:21;17.90;99.90
20372;DHT22;63562;30.520;-97.766;2022-10-29T17:49:58;17.80;99.90
20372;DHT22;63562;30.520;-97.766;2022-10-29T17:52:33;17.80;99.90
20372;DHT22;63562;30.520;-97.766;2022-10-29T17:55:05;17.80;99.90
20372;DHT22;63562;30.520;-97.766;2022-10-29T17:57:38;18.00;99.90
20372;DHT22;63562;30.520;-97.766;2022-10-29T18:00:10;18.00;99.90
20372;DHT22;63562;30.520;-97.766;2022-10-29T18:02:41;17.90;99.90
20372;DHT22;63562;30.520;-97.766;2022-10-29T18:05:17;17.80;99.90
20372;DHT22;63562;30.520;-97.766;2022-10-29T18:07:47;18.00;99.90
20372;DHT22;63562;30.520;-97.766;2022-10-29T18:10:18;18.10;99.90
20372;DHT22;63562;30.520;-97.766;2022-10-29T18:12:54;18.00;99.90
20372;DHT22;63562;30.520;-97.766;2022-10-29T18:15:27;18.00;99.90
20372;DHT22;63562;30.520;-97.766;2022-10-29T18:17:58;17.90;99.90
20372;DHT22;63562;30.520;-97.766;2022-10-29T18:20:28;17.90;99.90
20372;DHT22;63562;30.520;-97.766;2022-10-29T18:23:02;17.90;99.90
20372;DHT22;63562;30.520;-97.766;2022-10-29T18:25:34;17.90;99.90
20372;DHT22;63562;30.520;-97.766;2022-10-29T18:28:05;17.90;99.90
20372;DHT22;63562;30.520;-97.766;2022-10-29T18:30:35;17.90;99.90
20372;DHT22;63562;30.520;-97.766;2022-10-29T18:33:06;17.90;99.90
20372;DHT22;63562;30.520;-97.766;2022-10-29T18:35:38;18.00;99.90
20372;DHT22;63562;30.520;-97.766;2022-10-29T18:38:10;18.00;99.90
20372;DHT22;63562;30.520;-97.766;2022-10-29T18:40:42;17.90;99.90
20372;DHT22;63562;30.520;-97.766;2022-10-29T18:43:14;18.00;99.90